sensor_id;sensor_type;location;lat;lon;timestamp;pressure;altitude;pressure_sealevel;temperature;humidity
61880;BME280;47817;52.798;27.544;2023-03-22T00:03:56;1022.3;;;8.8;74.8
61880;BME280;47817;52.798;27.544;2023-03-22T00:08:50;1022.3;;;8.7;75
61880;BME280;47817;52.798;27.544;2023-03-22T00:14:24;1022.4;;;8.8;75
61880;BME280;47817;52.798;27.544;2023-03-22T00:18:44;1022.4;;;8.7;75.2
61880;BME280;47817;52.798;27.544;2023-03-22T00:24:00;1022.4;;;8.8;75.1
61880;BME280;47817;52.798;27.544;2023-03-22T00:28:46;1022.4;;;8.8;74.9
61880;BME280;47817;52.798;27.544;2023-03-22T00:33:34;1022.4;;;8.8;74.7
61880;BME280;47817;52.798;27.544;2023-03-22T00:39:22;1022.4;;;8.8;74.4
61880;BME280;47817;52.798;27.544;2023-03-22T00:43:44;1022.4;;;8.8;74.4
61880;BME280;47817;52.798;27.544;2023-03-22T00:48:34;1022.3;;;8.7;74.4
61880;BME280;47817;52.798;27.544;2023-03-22T00:54:04;1022.3;;;8.7;74.4
61880;BME280;47817;52.798;27.544;2023-03-22T00:58:50;1022.3;;;8.7;74.4
61880;BME280;47817;52.798;27.544;2023-03-22T01:04:24;1022.3;;;8.7;74.5
61880;BME280;47817;52.798;27.544;2023-03-22T01:08:34;1022.3;;;8.7;74.6
61880;BME280;47817;52.798;27.544;2023-03-22T01:14:00;1022.3;;;8.6;74.6
61880;BME280;47817;52.798;27.544;2023-03-22T01:19:06;1022.3;;;8.6;74.7
61880;BME280;47817;52.798;27.544;2023-03-22T01:24:26;1022.3;;;8.7;74.5
61880;BME280;47817;52.798;27.544;2023-03-22T01:29:28;1022.3;;;8.7;74.3
61880;BME280;47817;52.798;27.544;2023-03-22T01:33:34;1022.2;;;8.7;74.3
61880;BME280;47817;52.798;27.544;2023-03-22T01:38:44;1022.3;;;8.7;74.1
61880;BME280;47817;52.798;27.544;2023-03-22T01:44:24;1022.3;;;8.8;73.8
61880;BME280;47817;52.798;27.544;2023-03-22T01:49:00;1022.3;;;8.7;73.7
61880;BME280;47817;52.798;27.544;2023-03-22T01:54:17;1022.3;;;8.7;73.9
61880;BME280;47817;52.798;27.544;2023-03-22T01:58:44;1022.3;;;8.6;74.1
61880;BME280;47817;52.798;27.544;2023-03-22T02:03:35;1022.4;;;8.6;73.9
61880;BME280;47817;52.798;27.544;2023-03-22T02:09:24;1022.3;;;8.5;74.1
61880;BME280;47817;52.798;27.544;2023-03-22T02:14:06;1022.4;;;8.4;74
61880;BME280;47817;52.798;27.544;2023-03-22T02:19:23;1022.4;;;8.4;74
61880;BME280;47817;52.798;27.544;2023-03-22T02:24:44;1022.4;;;8.5;74.1
61880;BME280;47817;52.798;27.544;2023-03-22T02:29:00;1022.5;;;8.5;74
61880;BME280;47817;52.798;27.544;2023-03-22T02:34:15;1022.5;;;8.5;73.8
61880;BME280;47817;52.798;27.544;2023-03-22T02:39:00;1022.5;;;8.5;73.7
61880;BME280;47817;52.798;27.544;2023-03-22T02:43:51;1022.5;;;8.4;73.8
61880;BME280;47817;52.798;27.544;2023-03-22T02:48:48;1022.5;;;8.4;73.9
61880;BME280;47817;52.798;27.544;2023-03-22T02:54:10;1022.5;;;8.4;73.9
61880;BME280;47817;52.798;27.544;2023-03-22T02:59:26;1022.5;;;8.4;73.8
61880;BME280;47817;52.798;27.544;2023-03-22T03:04:18;1022.5;;;8.4;73.9
61880;BME280;47817;52.798;27.544;2023-03-22T03:09:16;1022.5;;;8.4;73.9
61880;BME280;47817;52.798;27.544;2023-03-22T03:13:34;1022.6;;;8.3;74
61880;BME280;47817;52.798;27.544;2023-03-22T03:18:55;1022.5;;;8.2;74.3
61880;BME280;47817;52.798;27.544;2023-03-22T03:24:25;1022.6;;;8.3;74.2
61880;BME280;47817;52.798;27.544;2023-03-22T03:28:35;1022.6;;;8.3;74.2
61880;BME280;47817;52.798;27.544;2023-03-22T03:34:16;1022.6;;;8.3;74.2
61880;BME280;47817;52.798;27.544;2023-03-22T03:38:45;1022.7;;;8.2;74.3
61880;BME280;47817;52.798;27.544;2023-03-22T03:43:44;1022.7;;;8.3;74.4
61880;BME280;47817;52.798;27.544;2023-03-22T03:49:24;1022.7;;;8.3;74.3
61880;BME280;47817;52.798;27.544;2023-03-22T03:53:44;1022.8;;;8.3;74.3
61880;BME280;47817;52.798;27.544;2023-03-22T03:58:50;1022.8;;;8.3;74.2
61880;BME280;47817;52.798;27.544;2023-03-22T04:03:34;1022.8;;;8.4;74.2
61880;BME280;47817;52.798;27.544;2023-03-22T04:08:34;1022.8;;;8.3;74
61880;BME280;47817;52.798;27.544;2023-03-22T04:14:24;1022.9;;;8.2;74.3
61880;BME280;47817;52.798;27.544;2023-03-22T04:19:00;1022.9;;;8.2;74.6
61880;BME280;47817;52.798;27.544;2023-03-22T04:24:00;1022.9;;;8.2;74.6
61880;BME280;47817;52.798;27.544;2023-03-22T04:28:34;1022.9;;;8.3;74.5
61880;BME280;47817;52.798;27.544;2023-03-22T04:34:08;1022.9;;;8.3;74.5
61880;BME280;47817;52.798;27.544;2023-03-22T04:39:24;1023;;;8.3;74.5
61880;BME280;47817;52.798;27.544;2023-03-22T04:43:44;1023;;;8.2;75
61880;BME280;47817;52.798;27.544;2023-03-22T04:49:24;1023;;;8.2;75
61880;BME280;47817;52.798;27.544;2023-03-22T04:53:34;1023;;;8.3;74.7
61880;BME280;47817;52.798;27.544;2023-03-22T04:59:00;1023.1;;;8.3;74.7
61880;BME280;47817;52.798;27.544;2023-03-22T05:04:24;1023.1;;;8.4;74.4
61880;BME280;47817;52.798;27.544;2023-03-22T05:09:00;1023.2;;;8.5;74.2
61880;BME280;47817;52.798;27.544;2023-03-22T05:14:16;1023.2;;;8.6;73.8
61880;BME280;47817;52.798;27.544;2023-03-22T05:18:34;1023.3;;;8.6;73.8
61880;BME280;47817;52.798;27.544;2023-03-22T05:23:34;1023.3;;;8.7;73.5
61880;BME280;47817;52.798;27.544;2023-03-22T05:29:24;1023.2;;;8.8;73.2
61880;BME280;47817;52.798;27.544;2023-03-22T05:34:00;1023.2;;;9;72.8
61880;BME280;47817;52.798;27.544;2023-03-22T05:39:12;1023.2;;;9.1;72.5
61880;BME280;47817;52.798;27.544;2023-03-22T05:43:40;1023.2;;;9.2;72.2
61880;BME280;47817;52.798;27.544;2023-03-22T05:49:16;1023.2;;;9.4;71.8
61880;BME280;47817;52.798;27.544;2023-03-22T05:54:24;1023.2;;;9.7;71.2
61880;BME280;47817;52.798;27.544;2023-03-22T05:58:46;1023.2;;;9.9;70.6
61880;BME280;47817;52.798;27.544;2023-03-22T06:04:16;1023.3;;;10;70
61880;BME280;47817;52.798;27.544;2023-03-22T06:08:34;1023.3;;;10.1;69.7
61880;BME280;47817;52.798;27.544;2023-03-22T06:14:06;1023.4;;;10.3;68.8
61880;BME280;47817;52.798;27.544;2023-03-22T06:19:24;1023.4;;;10.4;68.5
61880;BME280;47817;52.798;27.544;2023-03-22T06:24:00;1023.4;;;10.6;67.9
61880;BME280;47817;52.798;27.544;2023-03-22T06:29:16;1023.4;;;10.7;67.4
61880;BME280;47817;52.798;27.544;2023-03-22T06:33:42;1023.4;;;10.9;67.1
61880;BME280;47817;52.798;27.544;2023-03-22T06:39:06;1023.4;;;11.1;67.2
61880;BME280;47817;52.798;27.544;2023-03-22T06:44:24;1023.4;;;11.3;66.3
61880;BME280;47817;52.798;27.544;2023-03-22T06:48:42;1023.4;;;11.4;65.9
61880;BME280;47817;52.798;27.544;2023-03-22T06:54:16;1023.4;;;11.5;65.5
61880;BME280;47817;52.798;27.544;2023-03-22T06:58:34;1023.5;;;11.5;65.2
61880;BME280;47817;52.798;27.544;2023-03-22T07:04:16;1023.5;;;11.6;64.8
61880;BME280;47817;52.798;27.544;2023-03-22T07:09:04;1023.4;;;11.7;64.2
61880;BME280;47817;52.798;27.544;2023-03-22T07:14:00;1023.4;;;12;63.8
61880;BME280;47817;52.798;27.544;2023-03-22T07:19:22;1023.4;;;12.2;62.9
61880;BME280;47817;52.798;27.544;2023-03-22T07:23:34;1023.4;;;12.4;61.9
61880;BME280;47817;52.798;27.544;2023-03-22T07:29:14;1023.5;;;12.5;61
61880;BME280;47817;52.798;27.544;2023-03-22T07:34:24;1023.4;;;12.7;59.5
61880;BME280;47817;52.798;27.544;2023-03-22T07:39:00;1023.4;;;12.9;59.1
61880;BME280;47817;52.798;27.544;2023-03-22T07:44:02;1023.4;;;13.2;58.4
61880;BME280;47817;52.798;27.544;2023-03-22T07:48:40;1023.4;;;13.6;56.4
61880;BME280;47817;52.798;27.544;2023-03-22T07:54:16;1023.4;;;13.8;54.5
61880;BME280;47817;52.798;27.544;2023-03-22T07:59:24;1023.4;;;14.1;51.9
61880;BME280;47817;52.798;27.544;2023-03-22T08:04:16;1023.4;;;14.3;49.5
61880;BME280;47817;52.798;27.544;2023-03-22T08:09:14;1023.5;;;14.2;48.4
61880;BME280;47817;52.798;27.544;2023-03-22T08:13:34;1023.5;;;14;48
61880;BME280;47817;52.798;27.544;2023-03-22T08:19:15;1023.5;;;13.8;48.2
61880;BME280;47817;52.798;27.544;2023-03-22T08:24:20;1023.4;;;13.9;47.6
61880;BME280;47817;52.798;27.544;2023-03-22T08:28:58;1023.5;;;13.8;46.9
61880;BME280;47817;52.798;27.544;2023-03-22T08:34:19;1023.5;;;13.9;45.8
61880;BME280;47817;52.798;27.544;2023-03-22T08:39:04;1023.4;;;13.6;44.9
61880;BME280;47817;52.798;27.544;2023-03-22T08:44:16;1023.3;;;13.7;45.2
61880;BME280;47817;52.798;27.544;2023-03-22T08:49:22;1023.3;;;14;44.7
61880;BME280;47817;52.798;27.544;2023-03-22T08:54:22;1023.3;;;13.8;44.7
61880;BME280;47817;52.798;27.544;2023-03-22T08:59:16;1023.3;;;13.8;44.5
61880;BME280;47817;52.798;27.544;2023-03-22T09:03:34;1023.2;;;13.9;45.3
61880;BME280;47817;52.798;27.544;2023-03-22T09:09:00;1023.2;;;14.1;45.1
61880;BME280;47817;52.798;27.544;2023-03-22T09:14:24;1023.2;;;14.1;44.7
61880;BME280;47817;52.798;27.544;2023-03-22T09:18:58;1023.2;;;14.3;43.8
61880;BME280;47817;52.798;27.544;2023-03-22T09:24:18;1023.2;;;14.4;43.4
61880;BME280;47817;52.798;27.544;2023-03-22T09:28:34;1023.1;;;14.5;43.4
61880;BME280;47817;52.798;27.544;2023-03-22T09:34:18;1023.2;;;14.5;43.1
61880;BME280;47817;52.798;27.544;2023-03-22T09:39:24;1023.1;;;14.7;42.6
61880;BME280;47817;52.798;27.544;2023-03-22T09:44:01;1023.1;;;15;41.8
61880;BME280;47817;52.798;27.544;2023-03-22T09:49:19;1023.1;;;15;42.2
61880;BME280;47817;52.798;27.544;2023-03-22T09:53:52;1023.1;;;15;42
61880;BME280;47817;52.798;27.544;2023-03-22T09:59:20;1023.1;;;14.4;42.3
61880;BME280;47817;52.798;27.544;2023-03-22T10:04:43;1023.1;;;13.7;43.1
61880;BME280;47817;52.798;27.544;2023-03-22T10:09:04;1023.1;;;13.8;43.2
61880;BME280;47817;52.798;27.544;2023-03-22T10:13:38;1023.1;;;13.9;42.9
61880;BME280;47817;52.798;27.544;2023-03-22T10:18:44;1023;;;13.8;43.2
61880;BME280;47817;52.798;27.544;2023-03-22T10:24:18;1023;;;13.8;43.1
61880;BME280;47817;52.798;27.544;2023-03-22T10:29:29;1023;;;13.8;43.5
61880;BME280;47817;52.798;27.544;2023-03-22T10:34:02;1023;;;13.7;43.5
61880;BME280;47817;52.798;27.544;2023-03-22T10:39:27;1022.9;;;13.6;43.8
61880;BME280;47817;52.798;27.544;2023-03-22T10:43:44;1022.8;;;14.3;43
61880;BME280;47817;52.798;27.544;2023-03-22T10:49:17;1022.7;;;15.4;41.7
61880;BME280;47817;52.798;27.544;2023-03-22T10:54:26;1022.7;;;15.6;41.2
61880;BME280;47817;52.798;27.544;2023-03-22T10:58:44;1022.7;;;15.8;41.4
61880;BME280;47817;52.798;27.544;2023-03-22T11:04:24;1022.5;;;16.3;41
61880;BME280;47817;52.798;27.544;2023-03-22T11:08:38;1022.5;;;16.5;40.3
61880;BME280;47817;52.798;27.544;2023-03-22T11:14:19;1022.5;;;16.5;39.6
61880;BME280;47817;52.798;27.544;2023-03-22T11:19:23;1022.3;;;16.8;39.4
61880;BME280;47817;52.798;27.544;2023-03-22T11:23:47;1022.3;;;17.4;39.7
61880;BME280;47817;52.798;27.544;2023-03-22T11:29:24;1022.3;;;18;38.2
61880;BME280;47817;52.798;27.544;2023-03-22T11:33:35;1022.2;;;18;37.7
61880;BME280;47817;52.798;27.544;2023-03-22T11:39:14;1022.1;;;18.5;37
61880;BME280;47817;52.798;27.544;2023-03-22T11:44:25;1022.1;;;18.1;37.3
61880;BME280;47817;52.798;27.544;2023-03-22T11:48:59;1022.1;;;17.5;37.8
61880;BME280;47817;52.798;27.544;2023-03-22T11:54:27;1022.1;;;17.1;37.7
61880;BME280;47817;52.798;27.544;2023-03-22T11:58:44;1022.1;;;16.3;38.3
61880;BME280;47817;52.798;27.544;2023-03-22T12:04:17;1022;;;16.3;38.3
61880;BME280;47817;52.798;27.544;2023-03-22T12:09:29;1022;;;16.7;38.1
61880;BME280;47817;52.798;27.544;2023-03-22T12:13:38;1021.8;;;17.2;38.1
61880;BME280;47817;52.798;27.544;2023-03-22T12:19:31;1021.7;;;17.8;37.4
61880;BME280;47817;52.798;27.544;2023-03-22T12:23:34;1021.7;;;18.2;37
61880;BME280;47817;52.798;27.544;2023-03-22T12:29:14;1021.6;;;18.8;36.5
61880;BME280;47817;52.798;27.544;2023-03-22T12:34:30;1021.6;;;19.1;36.2
61880;BME280;47817;52.798;27.544;2023-03-22T12:38:36;1021.6;;;19;35.9
61880;BME280;47817;52.798;27.544;2023-03-22T12:44:23;1021.6;;;18.5;35.9
61880;BME280;47817;52.798;27.544;2023-03-22T12:48:51;1021.5;;;18.4;36
61880;BME280;47817;52.798;27.544;2023-03-22T12:54:16;1021.5;;;18.7;35.5
61880;BME280;47817;52.798;27.544;2023-03-22T12:59:23;1021.4;;;19.1;35.1
61880;BME280;47817;52.798;27.544;2023-03-22T13:03:48;1021.4;;;19.2;35.1
61880;BME280;47817;52.798;27.544;2023-03-22T13:09:02;1021.4;;;19.2;35.1
61880;BME280;47817;52.798;27.544;2023-03-22T13:13:42;1021.3;;;19;35.2
61880;BME280;47817;52.798;27.544;2023-03-22T13:19:24;1021.2;;;19.3;35.1
61880;BME280;47817;52.798;27.544;2023-03-22T13:23:36;1021.2;;;19.2;35.3
61880;BME280;47817;52.798;27.544;2023-03-22T13:28:55;1021.1;;;19.3;35.3
61880;BME280;47817;52.798;27.544;2023-03-22T13:34:34;1021;;;19.4;35.1
61880;BME280;47817;52.798;27.544;2023-03-22T13:38:34;1021;;;20;34.4
61880;BME280;47817;52.798;27.544;2023-03-22T13:44:18;1020.9;;;22.4;32
61880;BME280;47817;52.798;27.544;2023-03-22T13:49:27;1020.9;;;23.2;30.9
61880;BME280;47817;52.798;27.544;2023-03-22T13:53:54;1020.9;;;23.2;30.9
61880;BME280;47817;52.798;27.544;2023-03-22T13:59:27;1020.9;;;23.7;29.4
61880;BME280;47817;52.798;27.544;2023-03-22T14:03:44;1020.7;;;26.7;26.8
61880;BME280;47817;52.798;27.544;2023-03-22T14:08:36;1020.6;;;28.4;25.5
61880;BME280;47817;52.798;27.544;2023-03-22T14:14:24;1020.7;;;26.2;26
61880;BME280;47817;52.798;27.544;2023-03-22T14:18:58;1020.7;;;23.4;28.3
61880;BME280;47817;52.798;27.544;2023-03-22T14:24:26;1020.6;;;25.9;26.7
61880;BME280;47817;52.798;27.544;2023-03-22T14:28:42;1020.4;;;29.6;23.3
61880;BME280;47817;52.798;27.544;2023-03-22T14:34:07;1020.4;;;30.7;23.1
61880;BME280;47817;52.798;27.544;2023-03-22T14:38:45;1020.5;;;27.1;25.3
61880;BME280;47817;52.798;27.544;2023-03-22T14:44:26;1020.5;;;25.5;26.2
61880;BME280;47817;52.798;27.544;2023-03-22T14:48:51;1020.4;;;27;24.9
61880;BME280;47817;52.798;27.544;2023-03-22T14:53:42;1020.3;;;29.9;22.5
61880;BME280;47817;52.798;27.544;2023-03-22T14:59:10;1020.3;;;31.2;21.3
61880;BME280;47817;52.798;27.544;2023-03-22T15:03:59;1020.4;;;29.1;22.2
61880;BME280;47817;52.798;27.544;2023-03-22T15:09:27;1020.4;;;27.8;23.1
61880;BME280;47817;52.798;27.544;2023-03-22T15:13:36;1020.4;;;26.4;23.9
61880;BME280;47817;52.798;27.544;2023-03-22T15:18:50;1020.4;;;25.3;24.6
61880;BME280;47817;52.798;27.544;2023-03-22T15:23:47;1020.4;;;24.5;25.3
61880;BME280;47817;52.798;27.544;2023-03-22T15:28:59;1020.5;;;22.1;27.4
61880;BME280;47817;52.798;27.544;2023-03-22T15:34:27;1020.5;;;20.7;28.7
61880;BME280;47817;52.798;27.544;2023-03-22T15:38:36;1020.6;;;19.1;30.3
61880;BME280;47817;52.798;27.544;2023-03-22T15:43:58;1020.6;;;18.1;31.5
61880;BME280;47817;52.798;27.544;2023-03-22T15:49:15;1020.5;;;17.2;32.4
61880;BME280;47817;52.798;27.544;2023-03-22T15:53:34;1020.5;;;16.7;33.4
61880;BME280;47817;52.798;27.544;2023-03-22T15:59:24;1020.5;;;16.8;33.6
61880;BME280;47817;52.798;27.544;2023-03-22T16:03:51;1020.5;;;16.2;34.5
61880;BME280;47817;52.798;27.544;2023-03-22T16:08:58;1020.5;;;15.8;35.5
61880;BME280;47817;52.798;27.544;2023-03-22T16:14:09;1020.5;;;15.3;36.5
61880;BME280;47817;52.798;27.544;2023-03-22T16:18:34;1020.5;;;14.9;37.1
61880;BME280;47817;52.798;27.544;2023-03-22T16:24:24;1020.4;;;14.5;38.1
61880;BME280;47817;52.798;27.544;2023-03-22T16:28:52;1020.4;;;14.1;39.1
61880;BME280;47817;52.798;27.544;2023-03-22T16:33:34;1020.4;;;13.8;39.5
61880;BME280;47817;52.798;27.544;2023-03-22T16:39:08;1020.4;;;13.6;39.9
61880;BME280;47817;52.798;27.544;2023-03-22T16:43:50;1020.4;;;13.3;41.1
61880;BME280;47817;52.798;27.544;2023-03-22T16:49:26;1020.5;;;13.1;41.7
61880;BME280;47817;52.798;27.544;2023-03-22T16:53:52;1020.5;;;12.9;42.4
61880;BME280;47817;52.798;27.544;2023-03-22T16:58:34;1020.5;;;12.7;42.7
61880;BME280;47817;52.798;27.544;2023-03-22T17:04:10;1020.4;;;12.6;42.8
61880;BME280;47817;52.798;27.544;2023-03-22T17:08:44;1020.4;;;12.5;43
61880;BME280;47817;52.798;27.544;2023-03-22T17:14:24;1020.4;;;12.5;43.1
61880;BME280;47817;52.798;27.544;2023-03-22T17:19:08;1020.4;;;12.4;43.3
61880;BME280;47817;52.798;27.544;2023-03-22T17:23:34;1020.5;;;12.4;43.4
61880;BME280;47817;52.798;27.544;2023-03-22T17:28:50;1020.5;;;12.3;43.9
61880;BME280;47817;52.798;27.544;2023-03-22T17:33:34;1020.6;;;12.2;44.4
61880;BME280;47817;52.798;27.544;2023-03-22T17:39:26;1020.6;;;12.2;44.7
61880;BME280;47817;52.798;27.544;2023-03-22T17:43:54;1020.5;;;12.2;44.5
61880;BME280;47817;52.798;27.544;2023-03-22T17:48:34;1020.5;;;12.1;44.9
61880;BME280;47817;52.798;27.544;2023-03-22T17:54:10;1020.5;;;12.1;45
61880;BME280;47817;52.798;27.544;2023-03-22T17:59:06;1020.5;;;12;45.4
61880;BME280;47817;52.798;27.544;2023-03-22T18:04:26;1020.5;;;12;46
61880;BME280;47817;52.798;27.544;2023-03-22T18:08:34;1020.5;;;11.9;46.4
61880;BME280;47817;52.798;27.544;2023-03-22T18:13:34;1020.5;;;11.9;46.8
61880;BME280;47817;52.798;27.544;2023-03-22T18:19:10;1020.4;;;11.8;47.2
61880;BME280;47817;52.798;27.544;2023-03-22T18:23:44;1020.4;;;11.8;47.3
61880;BME280;47817;52.798;27.544;2023-03-22T18:29:28;1020.4;;;11.8;47.4
61880;BME280;47817;52.798;27.544;2023-03-22T18:33:34;1020.4;;;11.7;47.7
61880;BME280;47817;52.798;27.544;2023-03-22T18:38:34;1020.4;;;11.7;47.7
61880;BME280;47817;52.798;27.544;2023-03-22T18:44:10;1020.4;;;11.6;47.9
61880;BME280;47817;52.798;27.544;2023-03-22T18:48:34;1020.4;;;11.5;48.7
61880;BME280;47817;52.798;27.544;2023-03-22T18:54:28;1020.4;;;11.4;49
61880;BME280;47817;52.798;27.544;2023-03-22T18:58:54;1020.4;;;11.4;49.1
61880;BME280;47817;52.798;27.544;2023-03-22T19:04:28;1020.3;;;11.4;49.1
61880;BME280;47817;52.798;27.544;2023-03-22T19:09:22;1020.3;;;11.4;49
61880;BME280;47817;52.798;27.544;2023-03-22T19:13:34;1020.3;;;11.4;49.3
61880;BME280;47817;52.798;27.544;2023-03-22T19:19:12;1020.3;;;11.4;49.3
61880;BME280;47817;52.798;27.544;2023-03-22T19:23:54;1020.3;;;11.4;49.4
61880;BME280;47817;52.798;27.544;2023-03-22T19:29:26;1020.2;;;11.3;49.7
61880;BME280;47817;52.798;27.544;2023-03-22T19:34:08;1020.3;;;11.2;50.2
61880;BME280;47817;52.798;27.544;2023-03-22T19:38:50;1020.3;;;11;50.8
61880;BME280;47817;52.798;27.544;2023-03-22T19:44:26;1020.3;;;10.9;51.2
61880;BME280;47817;52.798;27.544;2023-03-22T19:48:50;1020.4;;;10.8;50.8
61880;BME280;47817;52.798;27.544;2023-03-22T19:54:28;1020.4;;;10.7;51.4
61880;BME280;47817;52.798;27.544;2023-03-22T19:59:02;1020.4;;;10.7;51.4
61880;BME280;47817;52.798;27.544;2023-03-22T20:03:44;1020.4;;;10.7;51.6
61880;BME280;47817;52.798;27.544;2023-03-22T20:09:28;1020.3;;;10.7;51.8
61880;BME280;47817;52.798;27.544;2023-03-22T20:13:54;1020.3;;;10.6;52.2
61880;BME280;47817;52.798;27.544;2023-03-22T20:19:28;1020.2;;;10.6;52.6
61880;BME280;47817;52.798;27.544;2023-03-22T20:24:10;1020.2;;;10.5;52.9
61880;BME280;47817;52.798;27.544;2023-03-22T20:29:00;1020.2;;;10.5;53.4
61880;BME280;47817;52.798;27.544;2023-03-22T20:34:24;1020.2;;;10.4;53.7
61880;BME280;47817;52.798;27.544;2023-03-22T20:38:34;1020.2;;;10.4;53.9
61880;BME280;47817;52.798;27.544;2023-03-22T20:44:26;1020.1;;;10.4;53.9
61880;BME280;47817;52.798;27.544;2023-03-22T20:49:06;1020.2;;;10.3;54.1
61880;BME280;47817;52.798;27.544;2023-03-22T20:53:42;1020.2;;;10.2;54.9
61880;BME280;47817;52.798;27.544;2023-03-22T20:59:27;1020.2;;;10.2;55.1
61880;BME280;47817;52.798;27.544;2023-03-22T21:03:52;1020.2;;;10.2;55
61880;BME280;47817;52.798;27.544;2023-03-22T21:09:22;1020.2;;;10.3;55
61880;BME280;47817;52.798;27.544;2023-03-22T21:14:00;1020.1;;;10.3;54.9
61880;BME280;47817;52.798;27.544;2023-03-22T21:18:50;1020;;;10.4;54.9
61880;BME280;47817;52.798;27.544;2023-03-22T21:24:26;1020;;;10.4;54.8
61880;BME280;47817;52.798;27.544;2023-03-22T21:28:50;1020.1;;;10.4;55
61880;BME280;47817;52.798;27.544;2023-03-22T21:34:22;1020.1;;;10.4;55
61880;BME280;47817;52.798;27.544;2023-03-22T21:39:08;1020;;;10.5;55.1
61880;BME280;47817;52.798;27.544;2023-03-22T21:43:35;1020;;;10.5;55.2
61880;BME280;47817;52.798;27.544;2023-03-22T21:49:28;1020;;;10.5;55.5
61880;BME280;47817;52.798;27.544;2023-03-22T21:54:28;1020;;;10.6;54.9
61880;BME280;47817;52.798;27.544;2023-03-22T21:59:26;1020;;;10.6;55.1
61880;BME280;47817;52.798;27.544;2023-03-22T22:04:10;1020;;;10.7;55.3
61880;BME280;47817;52.798;27.544;2023-03-22T22:08:34;1020;;;10.7;55.3
61880;BME280;47817;52.798;27.544;2023-03-22T22:14:28;1020;;;10.7;55.6
61880;BME280;47817;52.798;27.544;2023-03-22T22:18:52;1019.9;;;10.7;55.5
61880;BME280;47817;52.798;27.544;2023-03-22T22:24:28;1020;;;10.7;55.4
61880;BME280;47817;52.798;27.544;2023-03-22T22:29:10;1019.9;;;10.7;55.6
61880;BME280;47817;52.798;27.544;2023-03-22T22:33:35;1019.9;;;10.7;55.6
61880;BME280;47817;52.798;27.544;2023-03-22T22:39:00;1019.9;;;10.7;55.5
61880;BME280;47817;52.798;27.544;2023-03-22T22:43:52;1019.8;;;10.7;55.7
61880;BME280;47817;52.798;27.544;2023-03-22T22:49:18;1019.9;;;10.8;55.7
61880;BME280;47817;52.798;27.544;2023-03-22T22:54:08;1019.8;;;10.8;55.7
61880;BME280;47817;52.798;27.544;2023-03-22T22:59:00;1019.8;;;10.8;56.1
61880;BME280;47817;52.798;27.544;2023-03-22T23:04:28;1019.8;;;10.8;56.2
61880;BME280;47817;52.798;27.544;2023-03-22T23:08:34;1019.7;;;10.8;56
61880;BME280;47817;52.798;27.544;2023-03-22T23:14:28;1019.7;;;10.8;55.9
61880;BME280;47817;52.798;27.544;2023-03-22T23:19:11;1019.6;;;10.8;56
61880;BME280;47817;52.798;27.544;2023-03-22T23:23:34;1019.5;;;10.8;56.2
61880;BME280;47817;52.798;27.544;2023-03-22T23:29:18;1019.5;;;10.8;56.5
61880;BME280;47817;52.798;27.544;2023-03-22T23:33:52;1019.4;;;10.8;56.7
61880;BME280;47817;52.798;27.544;2023-03-22T23:39:23;1019.4;;;10.7;57
61880;BME280;47817;52.798;27.544;2023-03-22T23:44:06;1019.5;;;10.8;56.9
61880;BME280;47817;52.798;27.544;2023-03-22T23:48:50;1019.4;;;10.8;57.1
61880;BME280;47817;52.798;27.544;2023-03-22T23:54:26;1019.4;;;10.8;57.1
61880;BME280;47817;52.798;27.544;2023-03-22T23:58:35;1019.3;;;10.8;56.8
